createdAt,value
2019-03-12T00:01:15.428Z,101301.00
2019-03-12T00:03:43.376Z,101306.00
2019-03-12T00:06:11.349Z,101304.00
2019-03-12T00:08:39.480Z,101306.00
2019-03-12T00:11:07.386Z,101317.00
2019-03-12T00:13:35.329Z,101322.00
2019-03-12T00:16:04.499Z,101333.00
2019-03-12T00:18:32.526Z,101331.00
2019-03-12T00:21:01.541Z,101345.00
2019-03-12T00:23:29.555Z,101349.00
2019-03-12T00:25:57.540Z,101351.00
2019-03-12T00:28:25.578Z,101360.00
2019-03-12T00:30:53.575Z,101348.00
2019-03-12T00:33:21.457Z,101359.00
2019-03-12T00:35:49.419Z,101346.00
2019-03-12T00:38:17.386Z,101356.00
2019-03-12T00:40:45.379Z,101361.00
2019-03-12T00:43:13.448Z,101357.00
2019-03-12T00:45:41.401Z,101356.00
2019-03-12T00:48:09.381Z,101356.00
2019-03-12T00:50:37.266Z,101348.00
2019-03-12T00:53:05.214Z,101361.00
2019-03-12T00:55:33.104Z,101360.00
2019-03-12T00:58:01.165Z,101361.00
2019-03-12T01:00:29.099Z,101359.00
2019-03-12T01:02:56.969Z,101357.00
2019-03-12T01:05:24.987Z,101359.00
2019-03-12T01:07:52.929Z,101349.00
2019-03-12T01:10:20.848Z,101349.00
2019-03-12T01:12:48.853Z,101360.00
2019-03-12T01:15:16.822Z,101364.00
2019-03-12T01:17:45.837Z,101369.00
2019-03-12T01:20:13.829Z,101360.00
2019-03-12T01:22:42.056Z,101361.00
2019-03-12T01:25:10.552Z,101360.00
2019-03-12T01:27:38.734Z,101362.00
2019-03-12T01:30:09.711Z,101368.00
2019-03-12T01:32:37.611Z,101364.00
2019-03-12T01:35:05.802Z,101357.00
2019-03-12T01:37:37.407Z,101345.00
2019-03-12T01:40:09.568Z,101345.00
2019-03-12T01:42:38.704Z,101355.00
2019-03-12T01:45:08.998Z,101367.00
2019-03-12T01:47:38.641Z,101386.00
2019-03-12T01:50:10.387Z,101387.00
2019-03-12T01:52:39.681Z,101401.00
2019-03-12T01:55:08.621Z,101400.00
2019-03-12T01:57:36.458Z,101402.00
2019-03-12T02:00:06.532Z,101403.00
2019-03-12T02:02:34.718Z,101401.00
2019-03-12T02:05:02.824Z,101383.00
2019-03-12T02:07:30.829Z,101369.00
2019-03-12T02:09:58.745Z,101366.00
2019-03-12T02:12:26.619Z,101352.00
2019-03-12T02:14:54.497Z,101346.00
2019-03-12T02:17:22.358Z,101342.00
2019-03-12T02:19:50.540Z,101351.00
2019-03-12T02:22:18.400Z,101352.00
2019-03-12T02:24:52.601Z,101369.00
2019-03-12T02:27:16.093Z,101382.00
2019-03-12T02:29:44.080Z,101380.00
2019-03-12T02:32:11.972Z,101381.00
2019-03-12T02:34:39.848Z,101389.00
2019-03-12T02:37:07.861Z,101385.00
2019-03-12T02:39:36.830Z,101377.00
2019-03-12T02:42:04.803Z,101375.00
2019-03-12T02:44:32.689Z,101375.00
2019-03-12T02:47:00.541Z,101371.00
2019-03-12T02:49:28.453Z,101364.00
2019-03-12T02:51:57.292Z,101363.00
2019-03-12T02:54:26.141Z,101365.00
2019-03-12T02:56:54.099Z,101366.00
2019-03-12T02:59:22.010Z,101368.00
2019-03-12T03:01:50.125Z,101364.00
2019-03-12T03:04:18.050Z,101368.00
2019-03-12T03:06:50.735Z,101362.00
2019-03-12T03:09:18.770Z,101362.00
2019-03-12T03:11:46.679Z,101359.00
2019-03-12T03:14:36.964Z,101372.00
2019-03-12T03:17:06.036Z,101367.00
2019-03-12T03:19:33.897Z,101370.00
2019-03-12T03:22:01.744Z,101373.00
2019-03-12T03:24:30.658Z,101371.00
2019-03-12T03:26:58.840Z,101373.00
2019-03-12T03:29:26.760Z,101380.00
2019-03-12T03:31:54.617Z,101376.00
2019-03-12T03:34:27.792Z,101372.00
2019-03-12T03:36:52.288Z,101381.00
2019-03-12T03:39:20.170Z,101374.00
2019-03-12T03:41:48.068Z,101371.00
2019-03-12T03:44:16.445Z,101368.00
2019-03-12T03:46:44.388Z,101367.00
2019-03-12T03:49:12.376Z,101368.00
2019-03-12T03:51:40.539Z,101380.00
2019-03-12T03:54:08.401Z,101371.00
2019-03-12T03:56:36.362Z,101360.00
2019-03-12T03:59:04.298Z,101373.00
2019-03-12T04:01:32.153Z,101364.00
2019-03-12T04:04:00.073Z,101363.00
2019-03-12T04:06:28.070Z,101355.00
2019-03-12T04:08:55.979Z,101348.00
2019-03-12T04:11:23.907Z,101356.00
2019-03-12T04:13:51.723Z,101348.00
2019-03-12T04:16:19.668Z,101341.00
2019-03-12T04:18:47.514Z,101360.00
2019-03-12T04:21:15.644Z,101362.00
2019-03-12T04:23:43.869Z,101374.00
2019-03-12T04:26:11.879Z,101379.00
2019-03-12T04:28:39.831Z,101373.00
2019-03-12T04:31:07.769Z,101366.00
2019-03-12T04:34:16.531Z,101363.00
2019-03-12T04:36:45.876Z,101357.00
2019-03-12T04:39:14.113Z,101348.00
2019-03-12T04:41:42.022Z,101347.00
2019-03-12T04:44:09.948Z,101350.00
2019-03-12T04:46:37.873Z,101351.00
2019-03-12T04:49:05.831Z,101346.00
2019-03-12T04:51:35.066Z,101346.00
2019-03-12T04:54:02.966Z,101339.00
2019-03-12T04:56:30.891Z,101336.00
2019-03-12T04:58:58.869Z,101330.00
2019-03-12T05:01:26.852Z,101328.00
2019-03-12T05:03:54.702Z,101329.00
2019-03-12T05:06:22.588Z,101324.00
2019-03-12T05:08:50.455Z,101327.00
2019-03-12T05:11:18.804Z,101323.00
2019-03-12T05:14:24.723Z,101328.00
2019-03-12T05:16:55.903Z,101317.00
2019-03-12T05:19:25.237Z,101311.00
2019-03-12T05:21:53.127Z,101317.00
2019-03-12T05:24:21.148Z,101317.00
2019-03-12T05:26:50.308Z,101322.00
2019-03-12T05:29:18.432Z,101316.00
2019-03-12T05:31:46.327Z,101319.00
2019-03-12T05:34:14.314Z,101312.00
2019-03-12T05:36:42.331Z,101320.00
2019-03-12T05:39:10.135Z,101321.00
2019-03-12T05:41:39.119Z,101312.00
2019-03-12T05:44:07.066Z,101311.00
2019-03-12T05:46:34.999Z,101306.00
2019-03-12T05:49:04.021Z,101296.00
2019-03-12T05:51:32.047Z,101285.00
2019-03-12T05:54:00.117Z,101296.00
2019-03-12T05:56:28.047Z,101302.00
2019-03-12T05:58:56.025Z,101303.00
2019-03-12T06:01:23.983Z,101308.00
2019-03-12T06:03:51.962Z,101310.00
2019-03-12T06:06:19.975Z,101312.00
2019-03-12T06:08:47.911Z,101312.00
2019-03-12T06:11:15.950Z,101303.00
2019-03-12T06:13:43.924Z,101297.00
2019-03-12T06:16:11.896Z,101289.00
2019-03-12T06:18:40.005Z,101288.00
2019-03-12T06:21:08.032Z,101291.00
2019-03-12T06:23:36.033Z,101296.00
2019-03-12T06:26:04.386Z,101298.00
2019-03-12T06:28:32.416Z,101290.00
2019-03-12T06:31:20.002Z,101299.00
2019-03-12T06:33:55.538Z,101304.00
2019-03-12T06:36:36.528Z,101297.00
2019-03-12T06:39:29.658Z,101288.00
2019-03-12T06:42:16.899Z,101290.00
2019-03-12T06:44:55.010Z,101279.00
2019-03-12T06:47:38.345Z,101270.00
2019-03-12T06:50:16.045Z,101272.00
2019-03-12T06:53:01.118Z,101264.00
2019-03-12T06:55:48.331Z,101274.00
2019-03-12T06:58:44.851Z,101257.00
2019-03-12T07:01:31.495Z,101253.00
2019-03-12T07:04:30.657Z,101252.00
2019-03-12T07:07:17.270Z,101251.00
2019-03-12T07:10:08.257Z,101248.00
2019-03-12T07:12:58.866Z,101249.00
2019-03-12T07:15:44.763Z,101244.00
2019-03-12T07:18:35.389Z,101248.00
2019-03-12T07:21:28.752Z,101238.00
2019-03-12T07:24:06.646Z,101239.00
2019-03-12T07:26:43.736Z,101241.00
2019-03-12T07:29:25.010Z,101234.00
2019-03-12T07:32:11.300Z,101240.00
2019-03-12T07:34:50.221Z,101218.00
2019-03-12T07:37:44.846Z,101229.00
2019-03-12T07:40:41.165Z,101219.00
2019-03-12T07:43:31.483Z,101215.00
2019-03-12T07:46:19.291Z,101209.00
2019-03-12T07:49:07.663Z,101192.00
2019-03-12T07:52:01.415Z,101198.00
2019-03-12T07:54:46.386Z,101193.00
2019-03-12T07:57:23.161Z,101186.00
2019-03-12T07:59:57.923Z,101173.00
2019-03-12T08:02:44.007Z,101176.00
2019-03-12T08:05:29.744Z,101175.00
2019-03-12T08:08:17.414Z,101168.00
2019-03-12T08:11:00.421Z,101160.00
2019-03-12T08:13:44.256Z,101159.00
2019-03-12T08:16:21.351Z,101139.00
2019-03-12T08:19:01.599Z,101150.00
2019-03-12T08:21:49.981Z,101153.00
2019-03-12T08:24:24.051Z,101140.00
2019-03-12T08:27:20.390Z,101129.00
2019-03-12T08:30:08.025Z,101136.00
2019-03-12T08:32:46.234Z,101128.00
2019-03-12T08:35:22.434Z,101116.00
2019-03-12T08:38:01.562Z,101117.00
2019-03-12T08:40:52.499Z,101104.00
2019-03-12T08:43:33.513Z,101102.00
2019-03-12T08:46:22.374Z,101092.00
2019-03-12T08:49:11.358Z,101080.00
2019-03-12T08:52:07.829Z,101074.00
2019-03-12T08:54:54.721Z,101057.00
2019-03-12T08:57:40.886Z,101050.00
2019-03-12T09:00:37.380Z,101044.00
2019-03-12T09:03:24.722Z,101033.00
2019-03-12T09:06:01.376Z,101041.00
2019-03-12T09:08:44.230Z,101021.00
2019-03-12T09:11:30.446Z,101024.00
2019-03-12T09:14:09.394Z,101016.00
2019-03-12T09:17:12.049Z,101015.00
2019-03-12T09:19:51.006Z,101014.00
2019-03-12T09:22:44.261Z,101006.00
2019-03-12T09:25:40.827Z,101002.00
2019-03-12T09:28:40.602Z,100999.00
2019-03-12T09:31:26.472Z,100985.00
2019-03-12T09:34:03.276Z,100987.00
2019-03-12T09:36:49.719Z,100975.00
2019-03-12T09:39:40.357Z,100977.00
2019-03-12T09:42:26.667Z,100971.00
2019-03-12T09:45:10.785Z,100974.00
2019-03-12T09:47:58.557Z,100960.00
2019-03-12T09:50:31.775Z,100949.00
2019-03-12T09:53:15.765Z,100936.00
2019-03-12T09:55:53.365Z,100942.00
2019-03-12T09:58:37.617Z,100926.00
2019-03-12T10:01:25.243Z,100905.00
2019-03-12T10:04:13.080Z,100900.00
2019-03-12T10:07:06.504Z,100904.00
2019-03-12T10:09:50.831Z,100905.00
2019-03-12T10:12:36.978Z,100913.00
2019-03-12T10:15:37.057Z,100896.00
2019-03-12T10:18:30.383Z,100900.00
2019-03-12T10:21:16.821Z,100881.00
2019-03-12T10:24:07.368Z,100883.00
2019-03-12T10:26:52.198Z,100890.00
2019-03-12T10:29:38.062Z,100868.00
2019-03-12T10:32:25.628Z,100869.00
2019-03-12T10:39:18.542Z,100852.00
2019-03-12T10:41:54.182Z,100843.00
2019-03-12T10:44:31.162Z,100837.00
2019-03-12T10:47:04.507Z,100827.00
2019-03-12T10:49:37.544Z,100830.00
2019-03-12T10:52:03.035Z,100776.00
2019-03-12T10:54:30.987Z,100809.00
2019-03-12T10:56:58.969Z,100804.00
2019-03-12T10:59:26.961Z,100786.00
2019-03-12T11:01:54.857Z,100793.00
2019-03-12T11:04:22.815Z,100786.00
2019-03-12T11:06:50.865Z,100769.00
2019-03-12T11:09:19.626Z,100776.00
2019-03-12T11:11:47.546Z,100781.00
2019-03-12T11:14:16.589Z,100774.00
2019-03-12T11:16:44.569Z,100772.00
2019-03-12T11:19:12.576Z,100762.00
2019-03-12T11:21:40.576Z,100764.00
2019-03-12T11:24:08.531Z,100752.00
2019-03-12T11:26:36.515Z,100727.00
2019-03-12T11:29:04.636Z,100725.00
2019-03-12T11:31:32.552Z,100718.00
2019-03-12T11:34:00.537Z,100722.00
2019-03-12T11:36:28.522Z,100722.00
2019-03-12T11:38:56.565Z,100696.00
2019-03-12T11:41:24.654Z,100715.00
2019-03-12T11:43:53.069Z,100699.00
2019-03-12T11:46:21.094Z,100705.00
2019-03-12T11:48:49.185Z,100688.00
2019-03-12T11:51:17.513Z,100681.00
2019-03-12T11:53:46.581Z,100682.00
2019-03-12T11:56:15.331Z,100680.00
2019-03-12T11:58:43.257Z,100658.00
2019-03-12T12:01:11.315Z,100661.00
2019-03-12T12:03:39.331Z,100662.00
2019-03-12T12:06:07.288Z,100658.00
2019-03-12T12:08:35.181Z,100661.00
2019-03-12T12:11:03.278Z,100640.00
2019-03-12T12:13:31.357Z,100642.00
2019-03-12T12:16:00.129Z,100634.00
2019-03-12T12:18:28.208Z,100628.00
2019-03-12T12:20:56.225Z,100620.00
2019-03-12T12:23:24.353Z,100608.00
2019-03-12T12:25:52.399Z,100604.00
2019-03-12T12:28:20.662Z,100588.00
2019-03-12T12:30:48.634Z,100569.00
2019-03-12T12:33:16.781Z,100595.00
2019-03-12T12:35:44.783Z,100563.00
2019-03-12T12:38:12.712Z,100548.00
2019-03-12T12:40:40.676Z,100539.00
2019-03-12T12:43:08.621Z,100542.00
2019-03-12T12:45:36.651Z,100531.00
2019-03-12T12:48:05.113Z,100520.00
2019-03-12T12:50:33.134Z,100515.00
2019-03-12T12:53:01.115Z,100505.00
2019-03-12T12:55:29.084Z,100485.00
2019-03-12T12:57:57.005Z,100482.00
2019-03-12T13:00:25.071Z,100485.00
2019-03-12T13:02:52.988Z,100476.00
2019-03-12T13:05:21.098Z,100481.00
2019-03-12T13:07:49.121Z,100468.00
2019-03-12T13:10:21.185Z,100455.00
2019-03-12T13:12:49.472Z,100460.00
2019-03-12T13:15:17.631Z,100459.00
2019-03-12T13:17:45.694Z,100459.00
2019-03-12T13:20:14.491Z,100462.00
2019-03-12T13:22:42.452Z,100449.00
2019-03-12T13:25:10.785Z,100429.00
2019-03-12T13:27:42.608Z,100437.00
2019-03-12T13:30:11.905Z,100427.00
2019-03-12T13:32:39.809Z,100421.00
2019-03-12T13:35:08.632Z,100418.00
2019-03-12T13:37:36.751Z,100414.00
2019-03-12T13:40:05.139Z,100392.00
2019-03-12T13:42:33.029Z,100410.00
2019-03-12T13:45:01.460Z,100380.00
2019-03-12T13:47:30.001Z,100375.00
2019-03-12T13:49:58.110Z,100378.00
2019-03-12T13:52:28.689Z,100372.00
2019-03-12T13:54:56.689Z,100359.00
2019-03-12T13:57:24.690Z,100361.00
2019-03-12T13:59:52.681Z,100351.00
2019-03-12T14:02:20.636Z,100354.00
2019-03-12T14:04:48.635Z,100347.00
2019-03-12T14:07:16.602Z,100326.00
2019-03-12T14:09:44.688Z,100334.00
2019-03-12T14:12:13.040Z,100322.00
2019-03-12T14:14:41.057Z,100313.00
2019-03-12T14:17:09.460Z,100318.00
2019-03-12T14:19:38.644Z,100308.00
2019-03-12T14:22:08.434Z,100297.00
2019-03-12T14:24:36.511Z,100286.00
2019-03-12T14:27:04.569Z,100280.00
2019-03-12T14:29:32.586Z,100277.00
2019-03-12T14:32:00.807Z,100259.00
2019-03-12T14:34:28.820Z,100245.00
2019-03-12T14:36:56.881Z,100228.00
2019-03-12T14:39:25.223Z,100233.00
2019-03-12T14:41:53.243Z,100233.00
2019-03-12T14:44:22.170Z,100232.00
2019-03-12T14:46:50.161Z,100224.00
2019-03-12T14:49:18.278Z,100210.00
2019-03-12T14:52:33.119Z,100199.00
2019-03-12T14:55:01.147Z,100196.00
2019-03-12T14:57:29.195Z,100185.00
2019-03-12T14:59:57.157Z,100192.00
2019-03-12T15:02:25.264Z,100183.00
2019-03-12T15:04:53.307Z,100167.00
2019-03-12T15:07:21.273Z,100160.00
2019-03-12T15:09:49.289Z,100139.00
2019-03-12T15:12:17.384Z,100131.00
2019-03-12T15:14:45.344Z,100124.00
2019-03-12T15:17:13.368Z,100105.00
2019-03-12T15:19:41.370Z,100092.00
2019-03-12T15:22:09.375Z,100079.00
2019-03-12T15:24:37.403Z,100066.00
2019-03-12T15:27:06.363Z,100055.00
2019-03-12T15:29:35.933Z,100051.00
2019-03-12T15:32:04.742Z,100039.00
2019-03-12T15:34:33.086Z,100030.00
2019-03-12T15:37:02.063Z,100036.00
2019-03-12T15:39:30.152Z,100037.00
2019-03-12T15:41:58.199Z,100027.00
2019-03-12T15:44:26.580Z,100017.00
2019-03-12T15:46:54.587Z,100015.00
2019-03-12T15:49:23.099Z,100010.00
2019-03-12T15:51:51.226Z,99997.00
2019-03-12T15:54:19.786Z,99991.00
2019-03-12T15:56:49.348Z,99986.00
2019-03-12T15:59:17.636Z,100001.00
2019-03-12T16:01:45.684Z,99969.00
2019-03-12T16:04:13.928Z,99971.00
2019-03-12T16:06:41.908Z,99956.00
2019-03-12T16:09:10.181Z,99939.00
2019-03-12T16:11:39.008Z,99944.00
2019-03-12T16:14:08.406Z,99930.00
2019-03-12T16:16:36.568Z,99942.00
2019-03-12T16:19:04.680Z,99918.00
2019-03-12T16:21:32.646Z,99922.00
2019-03-12T16:24:01.062Z,99922.00
2019-03-12T16:26:29.175Z,99900.00
2019-03-12T16:28:57.280Z,99897.00
2019-03-12T16:31:25.286Z,99886.00
2019-03-12T16:33:53.261Z,99888.00
2019-03-12T16:36:21.400Z,99883.00
2019-03-12T16:38:49.343Z,99866.00
2019-03-12T16:41:17.409Z,99864.00
2019-03-12T16:43:45.380Z,99859.00
2019-03-12T16:46:13.396Z,99865.00
2019-03-12T16:48:41.626Z,99851.00
2019-03-12T16:51:09.597Z,99848.00
2019-03-12T16:53:39.682Z,99833.00
2019-03-12T16:56:07.685Z,99833.00
2019-03-12T16:58:35.642Z,99817.00
2019-03-12T17:01:03.777Z,99811.00
2019-03-12T17:03:32.008Z,99813.00
2019-03-12T17:06:00.009Z,99797.00
2019-03-12T17:08:28.131Z,99792.00
2019-03-12T17:11:02.452Z,99783.00
2019-03-12T17:13:26.151Z,99772.00
2019-03-12T17:15:55.168Z,99770.00
2019-03-12T17:18:23.322Z,99752.00
2019-03-12T17:20:51.389Z,99752.00
2019-03-12T17:23:19.468Z,99741.00
2019-03-12T17:25:47.520Z,99739.00
2019-03-12T17:28:16.645Z,99738.00
2019-03-12T17:30:45.194Z,99719.00
2019-03-12T17:33:13.520Z,99712.00
2019-03-12T17:35:41.867Z,99710.00
2019-03-12T17:38:11.478Z,99695.00
2019-03-12T17:40:39.506Z,99697.00
2019-03-12T17:43:08.990Z,99700.00
2019-03-12T17:45:37.263Z,99708.00
2019-03-12T17:48:05.440Z,99709.00
2019-03-12T17:50:33.828Z,99711.00
2019-03-12T17:53:02.207Z,99710.00
2019-03-12T17:55:31.203Z,99702.00
2019-03-12T17:57:59.517Z,99690.00
2019-03-12T18:00:28.985Z,99687.00
2019-03-12T18:02:57.471Z,99674.00
2019-03-12T18:05:26.296Z,99659.00
2019-03-12T18:07:54.632Z,99647.00
2019-03-12T18:10:22.789Z,99652.00
2019-03-12T18:12:51.084Z,99640.00
2019-03-12T18:15:20.230Z,99643.00
2019-03-12T18:17:49.628Z,99637.00
2019-03-12T18:20:18.092Z,99641.00
2019-03-12T18:22:46.573Z,99634.00
2019-03-12T18:25:24.419Z,99628.00
2019-03-12T18:27:54.815Z,99621.00
2019-03-12T18:30:23.326Z,99616.00
2019-03-12T18:32:51.654Z,99602.00
2019-03-12T18:35:20.261Z,99589.00
2019-03-12T18:37:49.384Z,99587.00
2019-03-12T18:40:18.273Z,99574.00
2019-03-12T18:42:49.779Z,99570.00
2019-03-12T18:45:19.954Z,99577.00
2019-03-12T18:47:51.316Z,99562.00
2019-03-12T18:50:21.572Z,99547.00
2019-03-12T18:52:49.701Z,99536.00
2019-03-12T18:55:55.149Z,99483.00
2019-03-12T18:58:23.735Z,99527.00
2019-03-12T19:00:54.514Z,99518.00
2019-03-12T19:03:23.888Z,99527.00
2019-03-12T19:05:53.011Z,99514.00
2019-03-12T19:08:22.172Z,99504.00
2019-03-12T19:10:50.243Z,99490.00
2019-03-12T19:13:18.731Z,99503.00
2019-03-12T19:15:46.958Z,99485.00
2019-03-12T19:18:15.248Z,99487.00
2019-03-12T19:20:43.396Z,99478.00
2019-03-12T19:23:11.638Z,99470.00
2019-03-12T19:25:40.431Z,99461.00
2019-03-12T19:28:08.548Z,99456.00
2019-03-12T19:30:36.743Z,99454.00
2019-03-12T19:33:15.295Z,99444.00
2019-03-12T19:35:43.579Z,99437.00
2019-03-12T19:38:11.860Z,99436.00
2019-03-12T19:40:40.228Z,99431.00
2019-03-12T19:43:09.460Z,99416.00
2019-03-12T19:45:37.711Z,99404.00
2019-03-12T19:48:07.003Z,99392.00
2019-03-12T19:50:35.821Z,99385.00
2019-03-12T19:53:04.433Z,99379.00
2019-03-12T19:55:40.063Z,99372.00
2019-03-12T19:58:09.412Z,99364.00
2019-03-12T20:00:38.610Z,99357.00
2019-03-12T20:03:13.312Z,99346.00
2019-03-12T20:05:38.814Z,99331.00
2019-03-12T20:08:07.635Z,99330.00
2019-03-12T20:11:33.793Z,99326.00
2019-03-12T20:15:05.159Z,99349.00
2019-03-12T20:18:33.187Z,99329.00
2019-03-12T20:22:00.736Z,99330.00
2019-03-12T20:25:36.634Z,99305.00
2019-03-12T20:29:06.335Z,99289.00
2019-03-12T20:32:38.850Z,99282.00
2019-03-12T20:36:03.536Z,99276.00
2019-03-12T20:39:34.817Z,99259.00
2019-03-12T20:43:24.976Z,99267.00
2019-03-12T20:46:56.801Z,99256.00
2019-03-12T20:50:14.576Z,99271.00
2019-03-12T20:54:01.230Z,99259.00
2019-03-12T20:57:24.028Z,99249.00
2019-03-12T21:00:40.727Z,99221.00
2019-03-12T21:04:08.281Z,99238.00
2019-03-12T21:07:27.006Z,99215.00
2019-03-12T21:11:07.081Z,99223.00
2019-03-12T21:14:35.885Z,99202.00
2019-03-12T21:18:16.177Z,99210.00
2019-03-12T21:22:09.527Z,99203.00
2019-03-12T21:25:19.127Z,99205.00
2019-03-12T21:28:50.337Z,99199.00
2019-03-12T21:31:18.764Z,99208.00
2019-03-12T21:33:47.037Z,99208.00
2019-03-12T21:36:15.597Z,99199.00
2019-03-12T21:38:43.992Z,99204.00
2019-03-12T21:41:12.418Z,99193.00
2019-03-12T21:43:40.643Z,99179.00
2019-03-12T21:46:08.961Z,99177.00
2019-03-12T21:48:38.810Z,99177.00
2019-03-12T21:51:07.422Z,99176.00
2019-03-12T21:53:35.555Z,99178.00
2019-03-12T21:56:04.242Z,99196.00
2019-03-12T21:58:33.535Z,99180.00
2019-03-12T22:01:01.768Z,99179.00
2019-03-12T22:03:30.604Z,99186.00
2019-03-12T22:05:59.044Z,99189.00
2019-03-12T22:08:27.206Z,99181.00
2019-03-12T22:10:55.867Z,99168.00
2019-03-12T22:13:24.208Z,99162.00
2019-03-12T22:15:52.503Z,99151.00
2019-03-12T22:18:20.764Z,99137.00
2019-03-12T22:20:51.298Z,99149.00
2019-03-12T22:23:23.060Z,99143.00
2019-03-12T22:25:51.859Z,99133.00
2019-03-12T22:28:20.149Z,99134.00
2019-03-12T22:30:48.323Z,99129.00
2019-03-12T22:33:16.477Z,99139.00
2019-03-12T22:35:44.737Z,99147.00
2019-03-12T22:38:13.057Z,99153.00
2019-03-12T22:40:41.200Z,99146.00
2019-03-12T22:43:09.339Z,99145.00
2019-03-12T22:45:37.382Z,99149.00
2019-03-12T22:48:05.660Z,99152.00
2019-03-12T22:50:33.668Z,99161.00
2019-03-12T22:53:01.712Z,99129.00
2019-03-12T22:55:30.861Z,99145.00
2019-03-12T22:57:59.231Z,99145.00
2019-03-12T23:00:46.417Z,99142.00
2019-03-12T23:03:32.761Z,99142.00
2019-03-12T23:06:19.039Z,99159.00
2019-03-12T23:09:05.731Z,99147.00
2019-03-12T23:11:35.750Z,99162.00
2019-03-12T23:14:04.509Z,99172.00
2019-03-12T23:16:32.970Z,99187.00
2019-03-12T23:19:01.107Z,99186.00
2019-03-12T23:21:29.344Z,99190.00
2019-03-12T23:23:57.402Z,99174.00
2019-03-12T23:26:25.523Z,99208.00
2019-03-12T23:28:53.868Z,99183.00
2019-03-12T23:31:21.805Z,99198.00
2019-03-12T23:33:50.226Z,99232.00
2019-03-12T23:36:18.476Z,99235.00
2019-03-12T23:38:46.487Z,99270.00
2019-03-12T23:41:14.476Z,99271.00
2019-03-12T23:43:42.448Z,99271.00
2019-03-12T23:46:11.233Z,99289.00
2019-03-12T23:48:39.220Z,99336.00
2019-03-12T23:51:07.409Z,99328.00
2019-03-12T23:53:35.920Z,99377.00
2019-03-12T23:56:03.948Z,99370.00
2019-03-12T23:58:32.415Z,99381.00
